createdAt,value
2023-02-19T00:01:12.338Z,5.68
2023-02-19T00:03:39.653Z,5.61
2023-02-19T00:06:09.854Z,5.50
2023-02-19T00:08:38.379Z,5.42
2023-02-19T00:11:08.709Z,5.36
2023-02-19T00:13:39.174Z,5.27
2023-02-19T00:16:07.477Z,5.22
2023-02-19T00:18:35.985Z,5.22
2023-02-19T00:21:03.766Z,5.17
2023-02-19T00:23:30.894Z,5.06
2023-02-19T00:26:03.184Z,5.08
2023-02-19T00:28:36.315Z,4.96
2023-02-19T00:31:06.910Z,4.84
2023-02-19T00:33:34.453Z,4.79
2023-02-19T00:36:02.898Z,4.75
2023-02-19T00:38:29.686Z,4.74
2023-02-19T00:40:56.371Z,4.73
2023-02-19T00:43:23.020Z,4.68
2023-02-19T00:45:49.672Z,4.71
2023-02-19T00:51:57.053Z,4.72
2023-02-19T00:54:23.808Z,4.85
2023-02-19T00:56:50.757Z,4.74
2023-02-19T00:59:17.541Z,4.65
2023-02-19T01:01:44.903Z,4.62
2023-02-19T01:04:11.701Z,4.54
2023-02-19T01:06:38.319Z,4.58
2023-02-19T01:09:06.124Z,4.51
2023-02-19T01:11:32.813Z,4.46
2023-02-19T01:14:00.975Z,4.42
2023-02-19T01:16:28.279Z,4.58
2023-02-19T01:18:56.564Z,4.58
2023-02-19T01:21:25.713Z,4.45
2023-02-19T01:23:52.825Z,4.38
2023-02-19T01:26:22.440Z,4.30
2023-02-19T01:28:49.704Z,4.22
2023-02-19T01:31:19.536Z,4.22
2023-02-19T01:33:47.648Z,4.17
2023-02-19T01:36:14.922Z,4.13
2023-02-19T01:38:42.399Z,4.12
2023-02-19T01:41:12.476Z,4.08
2023-02-19T01:44:17.231Z,4.09
2023-02-19T01:46:48.815Z,4.13
2023-02-19T01:49:23.950Z,4.07
2023-02-19T01:51:59.168Z,4.09
2023-02-19T01:54:31.098Z,4.12
2023-02-19T01:56:59.957Z,4.07
2023-02-19T01:59:26.630Z,4.20
2023-02-19T02:01:53.499Z,4.18
2023-02-19T02:04:20.339Z,4.15
2023-02-19T02:06:53.689Z,4.11
2023-02-19T02:09:41.015Z,4.11
2023-02-19T02:12:07.908Z,4.15
2023-02-19T02:14:38.179Z,4.11
2023-02-19T02:17:31.473Z,4.26
2023-02-19T02:20:16.079Z,4.23
2023-02-19T02:22:51.487Z,4.22
2023-02-19T02:25:55.330Z,4.35
2023-02-19T02:28:40.623Z,4.38
2023-02-19T02:31:23.179Z,4.39
2023-02-19T02:33:49.834Z,4.32
2023-02-19T02:36:22.131Z,4.26
2023-02-19T02:38:50.153Z,4.10
2023-02-19T02:41:16.962Z,4.02
2023-02-19T02:43:43.645Z,3.98
2023-02-19T02:46:16.681Z,3.95
2023-02-19T02:48:54.088Z,3.93
2023-02-19T02:51:44.015Z,3.81
2023-02-19T02:54:31.142Z,3.75
2023-02-19T02:56:59.364Z,3.69
2023-02-19T02:59:28.856Z,3.69
2023-02-19T03:02:14.745Z,4.10
2023-02-19T03:05:39.841Z,4.16
2023-02-19T03:08:15.365Z,3.94
2023-02-19T03:10:52.599Z,3.82
2023-02-19T03:13:43.941Z,3.86
2023-02-19T03:16:34.592Z,3.84
2023-02-19T03:19:20.075Z,3.80
2023-02-19T03:21:59.883Z,3.80
2023-02-19T03:24:52.079Z,3.75
2023-02-19T03:27:21.096Z,3.81
2023-02-19T03:29:50.293Z,3.76
2023-02-19T03:32:33.154Z,3.69
2023-02-19T03:35:06.400Z,3.59
2023-02-19T03:37:39.916Z,3.39
2023-02-19T03:40:07.334Z,3.35
2023-02-19T03:43:08.964Z,3.33
2023-02-19T03:45:55.837Z,3.17
2023-02-19T03:48:33.860Z,3.05
2023-02-19T03:51:08.371Z,3.06
2023-02-19T03:55:01.869Z,3.07
2023-02-19T03:57:39.499Z,3.13
2023-02-19T04:00:14.517Z,3.23
2023-02-19T04:02:58.772Z,3.18
2023-02-19T04:05:32.221Z,3.16
2023-02-19T04:08:04.166Z,3.16
2023-02-19T04:10:32.178Z,3.32
2023-02-19T04:13:10.648Z,3.22
2023-02-19T04:15:41.862Z,3.18
2023-02-19T04:18:14.509Z,3.18
2023-02-19T04:20:44.630Z,3.17
2023-02-19T04:23:12.706Z,3.17
2023-02-19T04:25:43.410Z,3.21
2023-02-19T04:28:10.459Z,3.27
2023-02-19T04:30:37.179Z,3.33
2023-02-19T04:33:03.905Z,3.17
2023-02-19T04:35:30.665Z,3.19
2023-02-19T04:37:57.300Z,3.23
2023-02-19T04:40:23.888Z,3.17
2023-02-19T04:42:50.549Z,3.14
2023-02-19T04:45:17.164Z,3.19
2023-02-19T04:47:43.898Z,3.20
2023-02-19T04:50:10.638Z,3.17
2023-02-19T04:52:37.389Z,3.30
2023-02-19T04:55:04.423Z,3.36
2023-02-19T04:57:31.453Z,3.29
2023-02-19T04:59:58.078Z,3.23
2023-02-19T05:02:24.780Z,3.25
2023-02-19T05:04:51.382Z,3.24
2023-02-19T05:07:18.732Z,3.20
2023-02-19T05:09:45.301Z,3.19
2023-02-19T05:12:11.909Z,3.15
2023-02-19T05:14:38.751Z,3.14
2023-02-19T05:17:05.367Z,3.14
2023-02-19T05:19:32.127Z,3.13
2023-02-19T05:21:58.796Z,3.19
2023-02-19T05:24:26.879Z,3.18
2023-02-19T05:26:53.517Z,3.14
2023-02-19T05:30:32.987Z,3.22
2023-02-19T05:32:59.613Z,3.31
2023-02-19T05:35:26.286Z,3.30
2023-02-19T05:37:52.912Z,3.29
2023-02-19T05:40:19.523Z,3.33
2023-02-19T05:42:46.224Z,3.40
2023-02-19T05:45:12.874Z,3.41
2023-02-19T05:47:39.487Z,3.56
2023-02-19T05:50:06.620Z,3.53
2023-02-19T05:52:33.253Z,3.76
2023-02-19T05:54:59.859Z,3.74
2023-02-19T05:57:26.581Z,3.65
2023-02-19T05:59:53.194Z,3.65
2023-02-19T06:02:19.839Z,3.63
2023-02-19T06:04:46.437Z,3.59
2023-02-19T06:07:13.056Z,3.53
2023-02-19T06:09:39.692Z,3.55
2023-02-19T06:12:08.148Z,3.77
2023-02-19T06:14:34.791Z,3.78
2023-02-19T06:17:01.440Z,3.65
2023-02-19T06:19:28.091Z,3.58
2023-02-19T06:21:54.710Z,3.64
2023-02-19T06:24:21.370Z,3.64
2023-02-19T06:26:47.999Z,3.64
2023-02-19T06:29:14.660Z,3.63
2023-02-19T06:31:41.340Z,3.60
2023-02-19T06:34:08.025Z,3.53
2023-02-19T06:36:34.694Z,3.57
2023-02-19T06:39:02.221Z,3.58
2023-02-19T06:41:28.946Z,3.59
2023-02-19T06:43:57.476Z,3.66
2023-02-19T06:46:24.191Z,4.31
2023-02-19T06:48:50.900Z,4.32
2023-02-19T06:51:23.813Z,4.15
2023-02-19T06:53:50.727Z,4.02
2023-02-19T06:56:26.809Z,3.91
2023-02-19T06:58:56.144Z,3.86
2023-02-19T07:01:23.787Z,3.89
2023-02-19T07:03:51.042Z,3.94
2023-02-19T07:06:17.857Z,3.97
2023-02-19T07:08:44.789Z,3.97
2023-02-19T07:11:11.829Z,3.99
2023-02-19T07:13:38.626Z,4.03
2023-02-19T07:16:08.055Z,4.15
2023-02-19T07:18:35.380Z,4.16
2023-02-19T07:21:07.609Z,4.17
2023-02-19T07:23:34.703Z,4.24
2023-02-19T07:26:01.573Z,4.43
2023-02-19T07:28:28.386Z,4.58
2023-02-19T07:31:01.369Z,4.59
2023-02-19T07:33:28.161Z,4.57
2023-02-19T07:35:54.776Z,4.53
2023-02-19T07:38:23.548Z,4.53
2023-02-19T07:40:55.235Z,4.64
2023-02-19T07:43:22.684Z,4.68
2023-02-19T07:45:49.478Z,4.65
2023-02-19T07:48:16.830Z,4.70
2023-02-19T07:50:51.702Z,4.76
2023-02-19T07:53:18.280Z,4.70
2023-02-19T07:55:44.891Z,4.76
2023-02-19T07:58:12.004Z,4.76
2023-02-19T08:00:38.814Z,4.75
2023-02-19T08:03:05.780Z,4.80
2023-02-19T08:05:36.668Z,4.94
2023-02-19T08:08:06.653Z,5.03
2023-02-19T08:10:51.961Z,5.38
2023-02-19T08:13:25.688Z,5.35
2023-02-19T08:15:55.128Z,5.39
2023-02-19T08:18:27.814Z,5.32
2023-02-19T08:20:56.091Z,5.47
2023-02-19T08:23:23.730Z,5.44
2023-02-19T08:25:51.672Z,5.46
2023-02-19T08:28:19.516Z,5.76
2023-02-19T08:30:47.738Z,5.70
2023-02-19T08:33:18.301Z,5.53
2023-02-19T08:35:46.553Z,5.59
2023-02-19T08:38:16.361Z,5.66
2023-02-19T08:40:43.986Z,5.64
2023-02-19T08:43:13.949Z,5.61
2023-02-19T08:45:42.438Z,5.68
2023-02-19T08:48:09.412Z,5.93
2023-02-19T08:50:36.561Z,6.08
2023-02-19T08:53:05.009Z,6.16
2023-02-19T08:55:31.852Z,6.36
2023-02-19T08:57:58.945Z,6.90
2023-02-19T09:00:25.739Z,7.35
2023-02-19T09:02:52.588Z,7.82
2023-02-19T09:05:19.266Z,7.96
2023-02-19T09:07:45.944Z,8.20
2023-02-19T09:10:13.928Z,8.34
2023-02-19T09:12:40.998Z,8.31
2023-02-19T09:15:08.275Z,8.33
2023-02-19T09:17:34.972Z,8.25
2023-02-19T09:20:01.684Z,8.15
2023-02-19T09:22:28.360Z,8.32
2023-02-19T09:24:55.324Z,8.16
2023-02-19T09:27:22.032Z,8.15
2023-02-19T09:29:48.687Z,8.17
2023-02-19T09:32:16.664Z,8.24
2023-02-19T09:34:44.720Z,8.40
2023-02-19T09:37:11.489Z,8.37
2023-02-19T09:39:38.292Z,8.79
2023-02-19T09:42:15.404Z,8.95
2023-02-19T09:44:45.550Z,8.91
2023-02-19T09:47:21.840Z,9.40
2023-02-19T09:49:52.249Z,9.50
2023-02-19T09:52:37.731Z,9.58
2023-02-19T09:55:26.177Z,9.32
2023-02-19T09:57:53.440Z,9.39
2023-02-19T10:00:26.767Z,9.75
2023-02-19T10:03:30.936Z,9.97
2023-02-19T10:06:23.754Z,10.23
2023-02-19T10:08:53.273Z,10.21
2023-02-19T10:11:20.197Z,10.22
2023-02-19T10:14:02.366Z,10.29
2023-02-19T10:16:29.701Z,10.43
2023-02-19T10:18:56.722Z,11.35
2023-02-19T10:21:28.163Z,11.07
2023-02-19T10:24:03.103Z,11.20
2023-02-19T10:26:34.817Z,11.68
2023-02-19T10:29:03.519Z,12.13
2023-02-19T10:31:32.962Z,12.55
2023-02-19T10:34:02.181Z,13.13
2023-02-19T10:36:33.042Z,13.64
2023-02-19T10:39:01.973Z,14.02
2023-02-19T10:41:29.253Z,14.33
2023-02-19T10:44:10.947Z,14.46
2023-02-19T10:46:43.355Z,14.65
2023-02-19T10:49:22.627Z,14.60
2023-02-19T10:51:49.633Z,14.66
2023-02-19T10:54:25.249Z,14.61
2023-02-19T10:56:52.011Z,14.57
2023-02-19T10:59:18.636Z,14.57
2023-02-19T11:02:02.579Z,14.42
2023-02-19T11:04:35.595Z,14.35
2023-02-19T11:07:17.111Z,14.35
2023-02-19T11:09:52.886Z,14.49
2023-02-19T11:12:34.938Z,14.60
2023-02-19T11:15:20.326Z,14.87
2023-02-19T11:17:55.605Z,14.55
2023-02-19T11:20:22.646Z,14.54
2023-02-19T11:22:49.911Z,14.59
2023-02-19T11:25:17.214Z,14.76
2023-02-19T11:27:59.137Z,14.91
2023-02-19T11:30:36.130Z,14.90
2023-02-19T11:33:27.729Z,15.18
2023-02-19T11:36:24.565Z,15.15
2023-02-19T11:38:51.275Z,14.98
2023-02-19T11:41:34.157Z,14.90
2023-02-19T11:44:30.438Z,14.85
2023-02-19T11:47:06.141Z,14.89
2023-02-19T11:49:49.296Z,14.86
2023-02-19T11:52:34.217Z,14.81
2023-02-19T11:55:18.545Z,14.87
2023-02-19T11:58:11.233Z,14.71
2023-02-19T12:00:53.874Z,14.69
2023-02-19T12:03:45.588Z,14.67
2023-02-19T12:06:36.919Z,14.55
2023-02-19T12:09:15.683Z,14.41
2023-02-19T12:11:42.268Z,14.26
2023-02-19T12:14:28.133Z,14.11
2023-02-19T12:17:27.069Z,14.10
2023-02-19T12:20:10.679Z,14.11
2023-02-19T12:23:03.124Z,13.80
2023-02-19T12:25:51.364Z,13.44
2023-02-19T12:28:53.429Z,13.30
2023-02-19T12:31:33.071Z,13.41
2023-02-19T12:34:18.086Z,13.48
2023-02-19T12:36:56.575Z,13.53
2023-02-19T12:39:33.339Z,13.32
2023-02-19T12:42:21.698Z,13.21
2023-02-19T12:44:56.187Z,13.36
2023-02-19T12:47:28.599Z,13.26
2023-02-19T12:50:16.835Z,13.13
2023-02-19T12:52:49.916Z,13.03
2023-02-19T12:55:24.871Z,12.92
2023-02-19T12:57:53.166Z,12.90
2023-02-19T13:00:29.010Z,12.91
2023-02-19T13:02:58.644Z,12.86
2023-02-19T13:05:50.088Z,12.86
2023-02-19T13:08:25.718Z,12.88
2023-02-19T13:10:57.995Z,12.83
2023-02-19T13:13:34.700Z,12.76
2023-02-19T13:16:09.941Z,12.71
2023-02-19T13:18:44.386Z,12.54
2023-02-19T13:21:35.325Z,12.45
2023-02-19T13:24:09.534Z,12.37
2023-02-19T13:27:05.250Z,12.23
2023-02-19T13:29:47.220Z,12.13
2023-02-19T13:32:25.671Z,12.06
2023-02-19T13:35:22.659Z,11.97
2023-02-19T13:37:50.375Z,11.92
2023-02-19T13:40:39.498Z,11.86
2023-02-19T13:43:28.349Z,11.78
2023-02-19T13:46:00.832Z,11.74
2023-02-19T13:48:40.165Z,11.68
2023-02-19T13:51:13.081Z,11.56
2023-02-19T13:53:46.056Z,11.41
2023-02-19T13:56:34.340Z,11.39
2023-02-19T13:59:24.771Z,11.68
2023-02-19T14:01:54.064Z,11.43
2023-02-19T14:04:44.852Z,11.25
2023-02-19T14:07:11.500Z,11.12
2023-02-19T14:09:39.973Z,11.06
2023-02-19T14:12:15.071Z,11.01
2023-02-19T14:14:46.818Z,10.94
2023-02-19T14:17:33.283Z,10.85
2023-02-19T14:20:01.138Z,10.84
2023-02-19T14:22:45.838Z,10.75
2023-02-19T14:25:28.413Z,10.75
2023-02-19T14:28:06.644Z,10.68
2023-02-19T14:30:35.569Z,10.55
2023-02-19T14:33:10.569Z,10.50
2023-02-19T14:35:41.451Z,10.43
2023-02-19T14:38:36.126Z,10.35
2023-02-19T14:41:03.868Z,10.33
2023-02-19T14:43:31.992Z,10.32
2023-02-19T14:48:46.494Z,10.26
2023-02-19T14:51:23.320Z,10.26
2023-02-19T14:53:51.914Z,10.25
2023-02-19T14:56:26.189Z,10.27
2023-02-19T14:59:09.085Z,10.27
2023-02-19T15:01:35.939Z,10.21
2023-02-19T15:04:02.952Z,10.28
2023-02-19T15:06:31.722Z,10.32
2023-02-19T15:09:02.712Z,10.24
2023-02-19T15:11:32.675Z,10.12
2023-02-19T15:14:02.766Z,10.17
2023-02-19T15:16:31.396Z,10.16
2023-02-19T15:18:59.889Z,10.16
2023-02-19T15:21:29.724Z,10.10
2023-02-19T15:23:59.734Z,9.98
2023-02-19T15:26:35.993Z,9.92
2023-02-19T15:29:09.758Z,9.82
2023-02-19T15:31:37.031Z,9.83
2023-02-19T15:34:03.981Z,9.88
2023-02-19T15:36:34.078Z,9.80
2023-02-19T15:39:04.041Z,9.72
2023-02-19T15:41:34.681Z,9.67
2023-02-19T15:44:28.926Z,9.64
2023-02-19T15:46:57.119Z,9.56
2023-02-19T15:49:41.559Z,9.54
2023-02-19T15:52:12.178Z,9.49
2023-02-19T15:54:49.386Z,9.43
2023-02-19T15:57:23.000Z,9.35
2023-02-19T16:00:12.727Z,9.32
2023-02-19T16:02:40.659Z,9.26
2023-02-19T16:05:23.135Z,9.20
2023-02-19T16:08:06.726Z,9.05
2023-02-19T16:10:33.548Z,8.93
2023-02-19T16:13:02.642Z,8.83
2023-02-19T16:15:31.293Z,8.77
2023-02-19T16:17:59.085Z,8.67
2023-02-19T16:20:29.872Z,8.64
2023-02-19T16:23:03.091Z,8.48
2023-02-19T16:25:41.875Z,8.50
2023-02-19T16:28:22.991Z,8.48
2023-02-19T16:30:58.330Z,8.50
2023-02-19T16:33:28.047Z,8.47
2023-02-19T16:35:54.695Z,8.48
2023-02-19T16:38:21.582Z,8.62
2023-02-19T16:40:48.145Z,8.73
2023-02-19T16:43:14.794Z,8.73
2023-02-19T16:45:42.469Z,8.67
2023-02-19T16:48:10.246Z,8.62
2023-02-19T16:50:39.696Z,8.62
2023-02-19T16:53:06.245Z,8.63
2023-02-19T16:55:34.684Z,8.59
2023-02-19T16:58:01.513Z,8.63
2023-02-19T17:00:30.546Z,8.67
2023-02-19T17:03:00.940Z,8.71
2023-02-19T17:05:30.379Z,8.71
2023-02-19T17:07:57.063Z,8.68
2023-02-19T17:10:26.245Z,8.75
2023-02-19T17:12:54.110Z,8.80
2023-02-19T17:15:21.510Z,8.78
2023-02-19T17:17:48.714Z,8.88
2023-02-19T17:20:27.764Z,8.88
2023-02-19T17:22:55.429Z,8.91
2023-02-19T17:25:22.680Z,8.91
2023-02-19T17:27:49.752Z,8.96
2023-02-19T17:30:29.196Z,9.01
2023-02-19T17:32:55.990Z,8.96
2023-02-19T17:36:59.746Z,8.85
2023-02-19T17:39:26.590Z,8.86
2023-02-19T17:41:53.197Z,8.95
2023-02-19T17:44:19.807Z,8.97
2023-02-19T17:46:48.038Z,8.93
2023-02-19T17:49:14.757Z,8.86
2023-02-19T17:51:41.435Z,8.82
2023-02-19T17:54:08.503Z,8.93
2023-02-19T17:56:35.181Z,8.88
2023-02-19T17:59:01.907Z,8.84
2023-02-19T18:01:28.705Z,8.91
2023-02-19T18:03:55.395Z,9.03
2023-02-19T18:06:22.042Z,9.07
2023-02-19T18:08:51.012Z,8.95
2023-02-19T18:11:19.134Z,8.91
2023-02-19T18:13:46.208Z,8.95
2023-02-19T18:16:15.640Z,9.00
2023-02-19T18:18:42.940Z,9.09
2023-02-19T18:21:11.199Z,9.24
2023-02-19T18:23:38.596Z,9.24
2023-02-19T18:26:11.121Z,9.21
2023-02-19T18:28:38.282Z,9.25
2023-02-19T18:31:05.965Z,9.26
2023-02-19T18:33:34.676Z,9.26
2023-02-19T18:36:01.326Z,9.18
2023-02-19T18:38:27.989Z,9.10
2023-02-19T18:40:54.676Z,9.09
2023-02-19T18:43:21.361Z,9.20
2023-02-19T18:45:48.012Z,9.15
2023-02-19T18:48:14.643Z,9.12
2023-02-19T18:50:41.354Z,9.10
2023-02-19T18:53:08.011Z,9.08
2023-02-19T18:55:34.637Z,8.97
2023-02-19T19:00:27.902Z,8.81
2023-02-19T19:02:56.904Z,8.75
2023-02-19T19:05:24.869Z,8.87
2023-02-19T19:07:56.579Z,8.92
2023-02-19T19:10:23.844Z,9.00
2023-02-19T19:12:51.278Z,8.98
2023-02-19T19:15:18.921Z,9.00
2023-02-19T19:17:46.367Z,9.17
2023-02-19T19:20:14.657Z,9.22
2023-02-19T19:22:41.321Z,9.21
2023-02-19T19:25:09.055Z,9.21
2023-02-19T19:27:36.044Z,9.21
2023-02-19T19:30:04.845Z,9.16
2023-02-19T19:32:31.484Z,9.24
2023-02-19T19:34:58.273Z,9.25
2023-02-19T19:37:26.849Z,9.41
2023-02-19T19:39:56.128Z,9.39
2023-02-19T19:42:22.991Z,9.39
2023-02-19T19:44:49.688Z,9.32
2023-02-19T19:47:16.491Z,9.23
2023-02-19T19:52:21.345Z,9.32
2023-02-19T19:54:48.092Z,9.49
2023-02-19T19:57:15.996Z,9.66
2023-02-19T19:59:42.638Z,9.65
2023-02-19T20:04:23.458Z,9.51
2023-02-19T20:06:50.604Z,9.53
2023-02-19T20:09:18.011Z,9.46
2023-02-19T20:11:50.786Z,9.60
2023-02-19T20:14:19.476Z,9.47
2023-02-19T20:16:47.631Z,9.44
2023-02-19T20:19:15.642Z,9.35
2023-02-19T20:21:46.349Z,9.34
2023-02-19T20:24:28.680Z,9.36
2023-02-19T20:27:01.958Z,9.22
2023-02-19T20:29:31.311Z,9.20
2023-02-19T20:32:00.121Z,9.10
2023-02-19T20:34:27.462Z,9.15
2023-02-19T20:36:54.322Z,9.08
2023-02-19T20:39:21.896Z,9.25
2023-02-19T20:41:51.676Z,8.97
2023-02-19T20:44:18.909Z,8.91
2023-02-19T20:46:48.020Z,8.92
2023-02-19T20:49:17.158Z,8.93
2023-02-19T20:51:48.829Z,8.88
2023-02-19T20:54:20.236Z,8.74
2023-02-19T20:56:48.626Z,8.38
2023-02-19T20:59:17.304Z,8.13
2023-02-19T21:01:44.655Z,7.93
2023-02-19T21:04:11.848Z,7.83
2023-02-19T21:06:39.770Z,7.68
2023-02-19T21:09:07.264Z,7.53
2023-02-19T21:11:34.072Z,7.35
2023-02-19T21:14:00.948Z,7.23
2023-02-19T21:16:29.422Z,7.13
2023-02-19T21:18:56.488Z,7.25
2023-02-19T21:21:26.198Z,6.99
2023-02-19T21:23:57.151Z,6.84
2023-02-19T21:26:25.625Z,6.66
2023-02-19T21:28:52.480Z,6.55
2023-02-19T21:31:20.220Z,6.53
2023-02-19T21:33:47.038Z,6.49
2023-02-19T21:36:13.911Z,6.50
2023-02-19T21:38:40.723Z,6.50
2023-02-19T21:41:07.426Z,6.51
2023-02-19T21:43:34.044Z,6.49
2023-02-19T21:46:00.740Z,6.49
2023-02-19T21:48:27.382Z,6.46
2023-02-19T21:50:53.976Z,6.42
2023-02-19T21:53:20.596Z,6.37
2023-02-19T21:56:43.580Z,6.27
2023-02-19T21:59:10.487Z,6.20
2023-02-19T22:04:19.480Z,6.05
2023-02-19T22:06:46.379Z,6.02
2023-02-19T22:11:51.349Z,5.91
2023-02-19T22:14:18.095Z,5.87
2023-02-19T22:16:44.850Z,5.88
2023-02-19T22:19:12.908Z,5.81
2023-02-19T22:21:43.681Z,5.77
2023-02-19T22:24:18.919Z,5.70
2023-02-19T22:26:46.333Z,5.60
2023-02-19T22:29:15.345Z,5.78
2023-02-19T22:31:42.317Z,5.67
2023-02-19T22:34:09.749Z,5.38
2023-02-19T22:36:40.517Z,5.33
2023-02-19T22:39:15.598Z,5.19
2023-02-19T22:41:43.437Z,5.15
2023-02-19T22:44:11.204Z,5.21
2023-02-19T22:46:37.897Z,5.04
2023-02-19T22:49:06.374Z,4.99
2023-02-19T22:51:35.648Z,5.01
2023-02-19T22:55:17.328Z,4.99
2023-02-19T22:57:43.971Z,5.11
2023-02-19T23:00:18.286Z,4.98
2023-02-19T23:02:46.883Z,4.89
2023-02-19T23:05:13.582Z,4.89
2023-02-19T23:07:44.862Z,4.89
2023-02-19T23:10:14.730Z,4.82
2023-02-19T23:14:01.099Z,4.65
2023-02-19T23:16:28.428Z,4.71
2023-02-19T23:18:55.493Z,4.73
2023-02-19T23:21:22.970Z,4.71
2023-02-19T23:27:30.283Z,4.48
2023-02-19T23:29:56.917Z,4.48
2023-02-19T23:32:23.895Z,4.52
2023-02-19T23:34:51.221Z,4.59
2023-02-19T23:37:18.034Z,4.55
2023-02-19T23:39:44.794Z,4.41
2023-02-19T23:42:15.710Z,4.38
2023-02-19T23:44:42.969Z,4.44
2023-02-19T23:47:09.586Z,4.49
2023-02-19T23:49:36.260Z,4.60
2023-02-19T23:52:03.261Z,4.53
2023-02-19T23:54:30.006Z,4.49
2023-02-19T23:56:56.690Z,4.45
2023-02-19T23:59:23.857Z,4.53
